Nearby METAR Reports

 

KMRB - Martinsburg, West Virginia, USA
Distance from station: NNW 9mi, 14km
Updated: 05/21/2019 12:53pm
Clear
Clear
 Wind from varies
Wind: varies 7 mph , 11 km/h, Gust: 16 mph , 26 km/h
Temperature: 64°F , 18°C
Dew Point: 43°F , 6°C
Humidity: 46%
Barometer: 30.08 inHg , 1018.6 hPa
Clouds: Clear
Visibility: 10 miles , 16 km
2019/05/21 16:53 KMRB 211653Z VRB06G14KT 10SM CLR 18/06 A3008 RMK AO2 SLP183 T01830056
KOKV - Winchester Rgnl, Virginia, USA
Distance from station: SW 17mi, 28km
Updated: 05/21/2019 1:35pm
Clear
Clear
 Wind from NNW
Wind: NNW 7 mph , 11 km/h
Temperature: 63°F , 17°C
Dew Point: 41°F , 5°C
Humidity: 45%
Barometer: 30.08 inHg , 1018.6 hPa
Clouds: Clear
Visibility: 10 miles , 16 km
2019/05/21 17:35 KOKV 211735Z AUTO 33006KT 10SM CLR 17/05 A3008 RMK AO2
 
KJYO - Leesburg/Godfrey, Virginia, USA
Distance from station: SE 23mi, 38km
Updated: 05/21/2019 1:35pm
Clear
Clear
 Wind from NNW
Wind: NNW 12 mph , 19 km/h
Temperature: 68°F , 20°C
Dew Point: 46°F , 8°C
Humidity: 46%
Barometer: 30.08 inHg , 1018.6 hPa
Clouds: Clear
Visibility: 10 miles , 16 km
2019/05/21 17:35 KJYO 211735Z AUTO 33010KT 320V020 10SM CLR 20/08 A3008 RMK AO2
KFDK - Frederick, Maryland, USA
Distance from station: ENE 30mi, 48km
Updated: 05/21/2019 1:47pm
Clear
Clear
 Wind from NW
Wind: NW 12 mph , 19 km/h, Gust: 17 mph , 28 km/h
Temperature: 68°F , 20°C
Dew Point: 43°F , 6°C
Humidity: 40%
Barometer: 30.08 inHg , 1018.6 hPa
Clouds: Clear
Visibility: 10 miles , 16 km
2019/05/21 17:47 KFDK 211747Z 32010G15KT 10SM SKC 20/06 A3008
 
KHGR - Hagerstown, Maryland, USA
Distance from station: NNE 30mi, 48km
Updated: 05/21/2019 12:53pm
Clear
Clear
 Wind from N
Wind: N 9 mph , 15 km/h
Temperature: 63°F , 17°C
Dew Point: 37°F , 3°C
Humidity: 39%
Barometer: 30.08 inHg , 1018.6 hPa
Clouds: Clear
Visibility: 10 miles , 16 km
2019/05/21 16:53 KHGR 211653Z 01008KT 10SM CLR 17/03 A3008 RMK AO2 SLP193 T01720033
KIAD - Wash Dc/Dulles, Virginia, USA
Distance from station: SE 34mi, 55km
Updated: 05/21/2019 12:52pm
Mostly cloudy
Mostly cloudy
 Wind from NW
Wind: NW 14 mph , 22 km/h
Temperature: 66°F , 19°C
Dew Point: 43°F , 6°C
Humidity: 43%
Barometer: 30.07 inHg , 1018.3 hPa
Clouds: Mostly cloudy
Visibility: 10 miles , 16 km
Cloud details: Partly cloudy 13000 ft
Mostly cloudy 25000 ft
2019/05/21 16:52 KIAD 211652Z 31012KT 10SM SCT130 BKN250 19/06 A3007 RMK AO2 SLP179 T01890061
 
KRSP - Nsf Thurmont, Maryland, USA
Distance from station: NE 34mi, 55km
Updated: 05/18/2019 1:54pm
NOT Current

 
2019/05/18 17:54 KRSP 181754Z AUTO VRB04KTLS21/16 A3004 RMK AO2 SLP168 T02110161 10228 20172 $
KGAI - Gaithersburg, Maryland, USA
Distance from station: E 40mi, 64km
Updated: 05/21/2019 12:56pm
Clear
Clear
 Wind from varies
Wind: varies 3 mph , 6 km/h
Temperature: 64°F , 18°C
Dew Point: 45°F , 7°C
Humidity: 49%
Barometer: 30.07 inHg , 1018.3 hPa
Clouds: Clear
Visibility: 10 miles , 16 km
2019/05/21 16:56 KGAI 211656Z AUTO VRB03KT 10SM CLR 18/07 A3007 RMK AO2 SLP207 T01830072
 
KRYT - Fountain Dale, Pennsylvania, USA
Distance from station: NE 40mi, 64km
Updated: 11/13/2017 7:53am
NOT Current
Mist, Overcast
Mist, Overcast
 Wind from calm
Wind: Calm
Temperature: 37°F , 3°C
Dew Point: 34°F , 1°C
Humidity: 87%
Barometer: 30.31 inHg , 1026.4 hPa
Summary: Mist
Clouds: Overcast
Visibility: 5 miles , 8 km
Cloud details: Overcast 700 ft
2017/11/13 12:53 KRYT 131253Z AUTO 00000KT 5SM BR OVC007 03/01 A3031 RMK AO2 SLP275 T00280011 TSNO $
KHEF - Manassas Muni, Virginia, USA
Distance from station: SSE 44mi, 72km
Updated: 05/21/2019 12:56pm
Clear
Clear
 Wind from NNW
Wind: NNW 12 mph , 19 km/h, Gust: 17 mph , 28 km/h
Temperature: 68°F , 20°C
Dew Point: 46°F , 8°C
Humidity: 46%
Barometer: 30.07 inHg , 1018.3 hPa
Clouds: Clear
Visibility: 10 miles , 16 km
2019/05/21 16:56 KHEF 211656Z 33010G15KT 10SM CLR 20/08 A3007 RMK AO2 SLP192 T02000078 PNO $
 
KHWY - Warrenton, Virginia, USA
Distance from station: SSE 50mi, 80km
Updated: 05/21/2019 1:35pm
Clear
Clear
 Wind from N
Wind: N 5 mph , 7 km/h, Gust: 21 mph , 33 km/h
Temperature: 72°F , 22°C
Dew Point: 43°F , 6°C
Humidity: 36%
Barometer: 30.05 inHg , 1017.6 hPa
Clouds: Clear
Visibility: 10 miles , 16 km
2019/05/21 17:35 KHWY 211735Z AUTO 36004G18KT 10SM CLR 22/06 A3005 RMK AO2 T02150057